sensor_id;sensor_type;location;lat;lon;timestamp;pressure;altitude;pressure_sealevel;temperature;humidity
13478;BME280;12598;62.382;17.344;2023-12-28T00:00:55;100743.06;;;14.87;21.18
13478;BME280;12598;62.382;17.344;2023-12-28T00:01:57;100754.69;;;14.86;21.11
13478;BME280;12598;62.382;17.344;2023-12-28T00:02:59;100740.66;;;14.84;20.84
13478;BME280;12598;62.382;17.344;2023-12-28T00:04:01;100751.19;;;14.85;21.05
13478;BME280;12598;62.382;17.344;2023-12-28T00:05:03;100753.88;;;14.85;21.26
13478;BME280;12598;62.382;17.344;2023-12-28T00:06:05;100753.97;;;14.84;21.13
13478;BME280;12598;62.382;17.344;2023-12-28T00:07:07;100750.34;;;14.85;20.87
13478;BME280;12598;62.382;17.344;2023-12-28T00:08:09;100747.69;;;14.85;21.02
13478;BME280;12598;62.382;17.344;2023-12-28T00:09:11;100749.63;;;14.83;20.95
13478;BME280;12598;62.382;17.344;2023-12-28T00:10:13;100754.84;;;14.84;21.21
13478;BME280;12598;62.382;17.344;2023-12-28T00:11:15;100746.00;;;14.84;20.81
13478;BME280;12598;62.382;17.344;2023-12-28T00:12:17;100736.00;;;14.77;21.16
13478;BME280;12598;62.382;17.344;2023-12-28T00:13:18;100742.63;;;14.82;21.04
13478;BME280;12598;62.382;17.344;2023-12-28T00:14:20;100745.28;;;14.82;21.30
13478;BME280;12598;62.382;17.344;2023-12-28T00:15:22;100742.63;;;14.82;21.13
13478;BME280;12598;62.382;17.344;2023-12-28T00:16:24;100739.94;;;14.82;21.15
13478;BME280;12598;62.382;17.344;2023-12-28T00:17:26;100741.19;;;14.78;21.19
13478;BME280;12598;62.382;17.344;2023-12-28T00:18:28;100735.59;;;14.81;21.08
13478;BME280;12598;62.382;17.344;2023-12-28T00:19:30;100737.56;;;14.79;20.92
13478;BME280;12598;62.382;17.344;2023-12-28T00:20:32;100737.44;;;14.80;21.23
13478;BME280;12598;62.382;17.344;2023-12-28T00:21:33;100736.72;;;14.78;21.06
13478;BME280;12598;62.382;17.344;2023-12-28T00:22:35;100733.09;;;14.79;21.15
13478;BME280;12598;62.382;17.344;2023-12-28T00:23:38;100733.91;;;14.80;20.90
13478;BME280;12598;62.382;17.344;2023-12-28T00:24:40;100732.22;;;14.79;21.38
13478;BME280;12598;62.382;17.344;2023-12-28T00:25:42;100731.41;;;14.78;20.87
13478;BME280;12598;62.382;17.344;2023-12-28T00:26:44;100728.84;;;14.77;21.12
13478;BME280;12598;62.382;17.344;2023-12-28T00:27:46;100710.16;;;14.68;21.16
13478;BME280;12598;62.382;17.344;2023-12-28T00:28:48;100727.16;;;14.76;20.86
13478;BME280;12598;62.382;17.344;2023-12-28T00:29:50;100712.94;;;14.66;21.04
13478;BME280;12598;62.382;17.344;2023-12-28T00:30:52;100721.84;;;14.76;21.30
13478;BME280;12598;62.382;17.344;2023-12-28T00:31:55;100728.84;;;14.77;21.13
13478;BME280;12598;62.382;17.344;2023-12-28T00:32:57;100721.84;;;14.76;20.97
13478;BME280;12598;62.382;17.344;2023-12-28T00:33:59;100718.47;;;14.74;21.06
13478;BME280;12598;62.382;17.344;2023-12-28T00:35:01;100724.63;;;14.75;21.35
13478;BME280;12598;62.382;17.344;2023-12-28T00:36:03;100713.13;;;14.74;21.25
13478;BME280;12598;62.382;17.344;2023-12-28T00:37:05;100718.47;;;14.74;21.10
13478;BME280;12598;62.382;17.344;2023-12-28T00:38:07;100715.78;;;14.74;21.02
13478;BME280;12598;62.382;17.344;2023-12-28T00:39:09;100717.63;;;14.74;21.13
13478;BME280;12598;62.382;17.344;2023-12-28T00:40:10;100722.09;;;14.73;21.24
13478;BME280;12598;62.382;17.344;2023-12-28T00:41:12;100722.09;;;14.73;21.13
13478;BME280;12598;62.382;17.344;2023-12-28T00:42:14;100716.19;;;14.70;21.25
13478;BME280;12598;62.382;17.344;2023-12-28T00:43:16;100723.06;;;14.72;21.07
13478;BME280;12598;62.382;17.344;2023-12-28T00:44:18;100726.59;;;14.73;21.04
13478;BME280;12598;62.382;17.344;2023-12-28T00:45:19;100725.72;;;14.72;20.96
13478;BME280;12598;62.382;17.344;2023-12-28T00:46:21;100728.38;;;14.72;21.26
13478;BME280;12598;62.382;17.344;2023-12-28T00:47:23;100715.69;;;14.65;20.77
13478;BME280;12598;62.382;17.344;2023-12-28T00:48:25;100727.66;;;14.70;20.91
13478;BME280;12598;62.382;17.344;2023-12-28T00:49:27;100732.16;;;14.70;21.11
13478;BME280;12598;62.382;17.344;2023-12-28T00:50:29;100727.66;;;14.70;21.02
13478;BME280;12598;62.382;17.344;2023-12-28T00:51:33;100726.69;;;14.71;21.33
13478;BME280;12598;62.382;17.344;2023-12-28T00:52:36;100737.34;;;14.71;20.89
13478;BME280;12598;62.382;17.344;2023-12-28T00:53:37;100728.53;;;14.71;21.15
13478;BME280;12598;62.382;17.344;2023-12-28T00:54:39;100725.97;;;14.69;20.97
13478;BME280;12598;62.382;17.344;2023-12-28T00:55:41;100733.97;;;14.69;21.24
13478;BME280;12598;62.382;17.344;2023-12-28T00:56:43;100738.47;;;14.69;20.86
13478;BME280;12598;62.382;17.344;2023-12-28T00:57:44;100730.94;;;14.63;21.12
13478;BME280;12598;62.382;17.344;2023-12-28T00:58:46;100733.25;;;14.67;20.98
13478;BME280;12598;62.382;17.344;2023-12-28T00:59:48;100738.56;;;14.67;21.32
13478;BME280;12598;62.382;17.344;2023-12-28T01:00:50;100738.56;;;14.67;21.12
13478;BME280;12598;62.382;17.344;2023-12-28T01:01:55;100742.09;;;14.68;21.02
13478;BME280;12598;62.382;17.344;2023-12-28T01:02:57;100730.69;;;14.66;20.98
13478;BME280;12598;62.382;17.344;2023-12-28T01:03:59;100737.72;;;14.67;21.36
13478;BME280;12598;62.382;17.344;2023-12-28T01:05:01;100736.03;;;14.66;21.03
13478;BME280;12598;62.382;17.344;2023-12-28T01:06:04;100743.19;;;14.65;21.05
13478;BME280;12598;62.382;17.344;2023-12-28T01:07:06;100738.56;;;14.67;20.96
13478;BME280;12598;62.382;17.344;2023-12-28T01:08:08;100711.81;;;14.48;21.03
13478;BME280;12598;62.382;17.344;2023-12-28T01:09:10;100739.53;;;14.66;21.26
13478;BME280;12598;62.382;17.344;2023-12-28T01:10:12;100742.19;;;14.66;20.71
13478;BME280;12598;62.382;17.344;2023-12-28T01:11:15;100746.66;;;14.66;20.84
13478;BME280;12598;62.382;17.344;2023-12-28T01:12:17;100740.50;;;14.65;21.13
13478;BME280;12598;62.382;17.344;2023-12-28T01:13:19;100739.66;;;14.65;21.01
13478;BME280;12598;62.382;17.344;2023-12-28T01:14:20;100738.81;;;14.64;21.15
13478;BME280;12598;62.382;17.344;2023-12-28T01:15:23;100738.81;;;14.64;20.74
13478;BME280;12598;62.382;17.344;2023-12-28T01:16:25;100737.97;;;14.64;20.97
13478;BME280;12598;62.382;17.344;2023-12-28T01:17:26;100744.97;;;14.65;21.03
13478;BME280;12598;62.382;17.344;2023-12-28T01:18:28;100739.81;;;14.63;21.10
13478;BME280;12598;62.382;17.344;2023-12-28T01:19:30;100731.81;;;14.63;20.74
13478;BME280;12598;62.382;17.344;2023-12-28T01:20:32;100734.59;;;14.62;20.66
13478;BME280;12598;62.382;17.344;2023-12-28T01:21:34;100729.25;;;14.62;20.93
13478;BME280;12598;62.382;17.344;2023-12-28T01:22:36;100723.38;;;14.58;20.94
13478;BME280;12598;62.382;17.344;2023-12-28T01:23:38;100734.47;;;14.63;20.82
13478;BME280;12598;62.382;17.344;2023-12-28T01:24:40;100728.69;;;14.58;20.94
13478;BME280;12598;62.382;17.344;2023-12-28T01:25:42;100744.41;;;14.61;21.07
13478;BME280;12598;62.382;17.344;2023-12-28T01:26:44;100738.22;;;14.61;20.91
13478;BME280;12598;62.382;17.344;2023-12-28T01:27:46;100734.84;;;14.59;20.52
13478;BME280;12598;62.382;17.344;2023-12-28T01:28:48;100736.53;;;14.60;20.92
13478;BME280;12598;62.382;17.344;2023-12-28T01:29:49;100734.84;;;14.59;21.34
13478;BME280;12598;62.382;17.344;2023-12-28T01:30:51;100728.69;;;14.58;20.71
13478;BME280;12598;62.382;17.344;2023-12-28T01:31:53;100727.00;;;14.57;20.90
13478;BME280;12598;62.382;17.344;2023-12-28T01:32:55;100723.47;;;14.57;21.08
13478;BME280;12598;62.382;17.344;2023-12-28T01:33:57;100732.31;;;14.57;21.20
13478;BME280;12598;62.382;17.344;2023-12-28T01:34:59;100722.66;;;14.56;20.96
13478;BME280;12598;62.382;17.344;2023-12-28T01:36:01;100720.97;;;14.55;20.86
13478;BME280;12598;62.382;17.344;2023-12-28T01:37:03;100717.84;;;14.50;20.88
13478;BME280;12598;62.382;17.344;2023-12-28T01:38:05;100720.00;;;14.56;21.16
13478;BME280;12598;62.382;17.344;2023-12-28T01:39:07;100718.31;;;14.55;20.80
13478;BME280;12598;62.382;17.344;2023-12-28T01:40:09;100713.34;;;14.51;20.73
13478;BME280;12598;62.382;17.344;2023-12-28T01:41:11;100708.88;;;14.51;20.86
13478;BME280;12598;62.382;17.344;2023-12-28T01:42:14;100719.28;;;14.54;20.97
13478;BME280;12598;62.382;17.344;2023-12-28T01:43:16;100711.28;;;14.54;20.63
13478;BME280;12598;62.382;17.344;2023-12-28T01:44:17;100710.44;;;14.54;20.61
13478;BME280;12598;62.382;17.344;2023-12-28T01:45:19;100708.63;;;14.54;20.92
13478;BME280;12598;62.382;17.344;2023-12-28T01:46:21;100708.63;;;14.54;21.08
13478;BME280;12598;62.382;17.344;2023-12-28T01:47:25;100701.72;;;14.52;21.02
13478;BME280;12598;62.382;17.344;2023-12-28T01:48:27;100683.63;;;14.46;21.09
13478;BME280;12598;62.382;17.344;2023-12-28T01:49:31;100701.63;;;14.53;20.69
13478;BME280;12598;62.382;17.344;2023-12-28T01:50:34;100697.53;;;14.49;20.81
13478;BME280;12598;62.382;17.344;2023-12-28T01:51:37;100693.75;;;14.52;20.51
13478;BME280;12598;62.382;17.344;2023-12-28T01:52:40;100694.63;;;14.52;20.93
13478;BME280;12598;62.382;17.344;2023-12-28T01:53:43;100690.53;;;14.48;20.69
13478;BME280;12598;62.382;17.344;2023-12-28T01:54:47;100697.28;;;14.52;20.93
13478;BME280;12598;62.382;17.344;2023-12-28T01:55:49;100690.25;;;14.51;20.84
13478;BME280;12598;62.382;17.344;2023-12-28T01:56:51;100680.09;;;14.45;21.02
13478;BME280;12598;62.382;17.344;2023-12-28T01:57:54;100692.06;;;14.51;20.93
13478;BME280;12598;62.382;17.344;2023-12-28T01:58:58;100683.25;;;14.50;20.84
13478;BME280;12598;62.382;17.344;2023-12-28T02:00:00;100688.56;;;14.50;20.81
13478;BME280;12598;62.382;17.344;2023-12-28T02:01:13;100694.63;;;14.52;20.51
13478;BME280;12598;62.382;17.344;2023-12-28T02:02:16;100691.25;;;14.50;20.82
13478;BME280;12598;62.382;17.344;2023-12-28T02:03:17;100688.81;;;14.47;20.78
13478;BME280;12598;62.382;17.344;2023-12-28T02:04:20;100690.53;;;14.48;20.44
13478;BME280;12598;62.382;17.344;2023-12-28T02:05:28;100687.72;;;14.50;20.65
13478;BME280;12598;62.382;17.344;2023-12-28T02:06:30;100683.38;;;14.49;20.88
13478;BME280;12598;62.382;17.344;2023-12-28T02:07:32;100684.34;;;14.48;20.70
13478;BME280;12598;62.382;17.344;2023-12-28T02:08:34;100687.16;;;14.46;21.21
13478;BME280;12598;62.382;17.344;2023-12-28T02:09:36;100686.28;;;14.46;21.04
13478;BME280;12598;62.382;17.344;2023-12-28T02:10:38;100680.09;;;14.45;21.25
13478;BME280;12598;62.382;17.344;2023-12-28T02:11:40;100680.00;;;14.47;21.01
13478;BME280;12598;62.382;17.344;2023-12-28T02:12:42;100675.66;;;14.46;21.10
13478;BME280;12598;62.382;17.344;2023-12-28T02:13:44;100673.09;;;14.44;20.54
13478;BME280;12598;62.382;17.344;2023-12-28T02:14:47;100664.53;;;14.41;20.68
13478;BME280;12598;62.382;17.344;2023-12-28T02:15:58;100670.44;;;14.44;21.08
13478;BME280;12598;62.382;17.344;2023-12-28T02:18:21;100665.59;;;14.49;20.54
13478;BME280;12598;62.382;17.344;2023-12-28T02:19:32;100665.59;;;14.49;20.68
13478;BME280;12598;62.382;17.344;2023-12-28T02:20:34;100658.59;;;14.48;20.97
13478;BME280;12598;62.382;17.344;2023-12-28T02:21:36;100651.00;;;14.44;20.89
13478;BME280;12598;62.382;17.344;2023-12-28T02:22:38;100658.81;;;14.45;20.50
13478;BME280;12598;62.382;17.344;2023-12-28T02:23:47;100647.72;;;14.40;20.84
13478;BME280;12598;62.382;17.344;2023-12-28T02:25:05;100653.28;;;14.48;20.81
13478;BME280;12598;62.382;17.344;2023-12-28T02:26:10;100658.72;;;14.47;20.76
13478;BME280;12598;62.382;17.344;2023-12-28T02:27:11;100658.00;;;14.45;20.49
13478;BME280;12598;62.382;17.344;2023-12-28T02:28:13;100662.44;;;14.44;20.51
13478;BME280;12598;62.382;17.344;2023-12-28T02:29:15;100642.19;;;14.32;20.50
13478;BME280;12598;62.382;17.344;2023-12-28T02:30:19;100661.03;;;14.40;20.57
13478;BME280;12598;62.382;17.344;2023-12-28T02:31:28;100661.03;;;14.40;20.50
13478;BME280;12598;62.382;17.344;2023-12-28T02:34:08;100658.81;;;14.45;20.47
13478;BME280;12598;62.382;17.344;2023-12-28T02:35:18;100649.03;;;14.46;20.62
13478;BME280;12598;62.382;17.344;2023-12-28T02:36:23;100658.81;;;14.45;20.42
13478;BME280;12598;62.382;17.344;2023-12-28T02:37:26;100648.94;;;14.36;20.55
13478;BME280;12598;62.382;17.344;2023-12-28T02:38:29;100652.06;;;14.41;20.76
13478;BME280;12598;62.382;17.344;2023-12-28T02:39:33;100656.56;;;14.41;20.70
13478;BME280;12598;62.382;17.344;2023-12-28T02:40:38;100649.66;;;14.38;20.62
13478;BME280;12598;62.382;17.344;2023-12-28T02:41:42;100653.19;;;14.39;20.45
13478;BME280;12598;62.382;17.344;2023-12-28T02:42:44;100652.31;;;14.38;20.59
13478;BME280;12598;62.382;17.344;2023-12-28T02:43:48;100647.97;;;14.37;20.43
13478;BME280;12598;62.382;17.344;2023-12-28T02:44:50;100650.63;;;14.37;20.83
13478;BME280;12598;62.382;17.344;2023-12-28T02:45:51;100647.25;;;14.35;20.51
13478;BME280;12598;62.382;17.344;2023-12-28T02:46:54;100647.25;;;14.35;20.82
13478;BME280;12598;62.382;17.344;2023-12-28T02:47:55;100631.31;;;14.35;20.89
13478;BME280;12598;62.382;17.344;2023-12-28T02:48:58;100623.13;;;14.27;20.89
13478;BME280;12598;62.382;17.344;2023-12-28T02:50:01;100641.94;;;14.35;20.65
13478;BME280;12598;62.382;17.344;2023-12-28T02:51:03;100637.59;;;14.34;20.89
13478;BME280;12598;62.382;17.344;2023-12-28T02:52:05;100640.25;;;14.34;20.92
13478;BME280;12598;62.382;17.344;2023-12-28T02:53:07;100634.09;;;14.34;20.48
13478;BME280;12598;62.382;17.344;2023-12-28T02:54:09;100636.88;;;14.32;20.83
13478;BME280;12598;62.382;17.344;2023-12-28T02:55:10;100641.22;;;14.33;20.46
13478;BME280;12598;62.382;17.344;2023-12-28T02:56:12;100641.38;;;14.32;20.57
13478;BME280;12598;62.382;17.344;2023-12-28T02:57:15;100639.53;;;14.32;20.39
13478;BME280;12598;62.382;17.344;2023-12-28T02:58:20;100636.88;;;14.32;20.82
13478;BME280;12598;62.382;17.344;2023-12-28T02:59:21;100631.56;;;14.32;20.33
13478;BME280;12598;62.382;17.344;2023-12-28T03:00:23;100629.88;;;14.31;20.52
13478;BME280;12598;62.382;17.344;2023-12-28T03:01:25;100614.69;;;14.22;20.43
13478;BME280;12598;62.382;17.344;2023-12-28T03:02:27;100612.75;;;14.24;20.56
13478;BME280;12598;62.382;17.344;2023-12-28T03:03:29;100620.22;;;14.30;20.23
13478;BME280;12598;62.382;17.344;2023-12-28T03:04:31;100626.50;;;14.29;20.63
13478;BME280;12598;62.382;17.344;2023-12-28T03:05:33;100616.72;;;14.30;20.72
13478;BME280;12598;62.382;17.344;2023-12-28T03:06:35;100615.84;;;14.29;20.73
13478;BME280;12598;62.382;17.344;2023-12-28T03:07:37;100610.53;;;14.29;20.14
13478;BME280;12598;62.382;17.344;2023-12-28T03:08:39;100612.38;;;14.29;20.29
13478;BME280;12598;62.382;17.344;2023-12-28T03:09:41;100608.13;;;14.26;20.16
13478;BME280;12598;62.382;17.344;2023-12-28T03:10:42;100609.00;;;14.27;20.38
13478;BME280;12598;62.382;17.344;2023-12-28T03:11:44;100605.47;;;14.26;20.15
13478;BME280;12598;62.382;17.344;2023-12-28T03:12:46;100611.66;;;14.27;20.42
13478;BME280;12598;62.382;17.344;2023-12-28T03:13:51;100609.81;;;14.27;20.27
13478;BME280;12598;62.382;17.344;2023-12-28T03:14:53;100605.47;;;14.26;20.47
13478;BME280;12598;62.382;17.344;2023-12-28T03:15:55;100606.56;;;14.24;20.62
13478;BME280;12598;62.382;17.344;2023-12-28T03:16:57;100608.13;;;14.26;20.71
13478;BME280;12598;62.382;17.344;2023-12-28T03:17:59;100610.06;;;14.24;20.28
13478;BME280;12598;62.382;17.344;2023-12-28T03:19:01;100609.09;;;14.25;20.21
13478;BME280;12598;62.382;17.344;2023-12-28T03:20:04;100606.56;;;14.24;20.44
13478;BME280;12598;62.382;17.344;2023-12-28T03:21:06;100605.72;;;14.23;20.59
13478;BME280;12598;62.382;17.344;2023-12-28T03:22:08;100604.03;;;14.22;20.30
13478;BME280;12598;62.382;17.344;2023-12-28T03:23:11;100586.91;;;14.15;20.46
13478;BME280;12598;62.382;17.344;2023-12-28T03:24:13;100609.38;;;14.22;20.66
13478;BME280;12598;62.382;17.344;2023-12-28T03:25:15;100604.03;;;14.22;20.21
13478;BME280;12598;62.382;17.344;2023-12-28T03:26:17;100611.16;;;14.22;20.43
13478;BME280;12598;62.382;17.344;2023-12-28T03:27:18;100593.91;;;14.16;20.45
13478;BME280;12598;62.382;17.344;2023-12-28T03:28:20;100593.91;;;14.16;20.32
13478;BME280;12598;62.382;17.344;2023-12-28T03:29:23;100597.88;;;14.22;20.15
13478;BME280;12598;62.382;17.344;2023-12-28T03:30:25;100584.13;;;14.17;20.50
13478;BME280;12598;62.382;17.344;2023-12-28T03:31:27;100585.53;;;14.21;20.72
13478;BME280;12598;62.382;17.344;2023-12-28T03:32:29;100583.75;;;14.21;20.65
13478;BME280;12598;62.382;17.344;2023-12-28T03:33:31;100577.72;;;14.19;20.35
13478;BME280;12598;62.382;17.344;2023-12-28T03:34:33;100563.06;;;14.14;20.52
13478;BME280;12598;62.382;17.344;2023-12-28T03:35:36;100579.41;;;14.20;20.67
13478;BME280;12598;62.382;17.344;2023-12-28T03:36:37;100572.66;;;14.16;20.45
13478;BME280;12598;62.382;17.344;2023-12-28T03:37:39;100567.56;;;14.13;20.54
13478;BME280;12598;62.382;17.344;2023-12-28T03:38:41;100570.72;;;14.18;20.61
13478;BME280;12598;62.382;17.344;2023-12-28T03:39:44;100567.06;;;14.19;20.13
13478;BME280;12598;62.382;17.344;2023-12-28T03:40:47;100566.22;;;14.19;20.54
13478;BME280;12598;62.382;17.344;2023-12-28T03:41:49;100568.03;;;14.18;20.49
13478;BME280;12598;62.382;17.344;2023-12-28T03:42:51;100566.38;;;14.17;20.45
13478;BME280;12598;62.382;17.344;2023-12-28T03:43:53;100553.19;;;14.16;20.51
13478;BME280;12598;62.382;17.344;2023-12-28T03:44:55;100566.47;;;14.16;20.20
13478;BME280;12598;62.382;17.344;2023-12-28T03:45:57;100571.69;;;14.17;20.28
13478;BME280;12598;62.382;17.344;2023-12-28T03:46:58;100560.31;;;14.15;20.20
13478;BME280;12598;62.382;17.344;2023-12-28T03:48:01;100577.09;;;14.16;20.35
13478;BME280;12598;62.382;17.344;2023-12-28T03:49:04;100568.38;;;14.14;20.68
13478;BME280;12598;62.382;17.344;2023-12-28T03:50:07;100562.59;;;14.09;20.31
13478;BME280;12598;62.382;17.344;2023-12-28T03:51:14;100584.34;;;14.14;20.63
13478;BME280;12598;62.382;17.344;2023-12-28T03:52:17;100584.13;;;14.17;20.23
13478;BME280;12598;62.382;17.344;2023-12-28T03:53:19;100581.59;;;14.15;20.27
13478;BME280;12598;62.382;17.344;2023-12-28T03:54:21;100580.75;;;14.15;20.07
13478;BME280;12598;62.382;17.344;2023-12-28T03:55:23;100573.84;;;14.12;20.27
13478;BME280;12598;62.382;17.344;2023-12-28T03:56:26;100573.69;;;14.14;20.52
13478;BME280;12598;62.382;17.344;2023-12-28T03:57:28;100560.09;;;14.07;20.44
13478;BME280;12598;62.382;17.344;2023-12-28T03:58:30;100567.56;;;14.13;20.06
13478;BME280;12598;62.382;17.344;2023-12-28T03:59:32;100563.22;;;14.12;20.51
13478;BME280;12598;62.382;17.344;2023-12-28T04:00:35;100555.22;;;14.12;20.51
13478;BME280;12598;62.382;17.344;2023-12-28T04:01:38;100556.91;;;14.13;20.60
13478;BME280;12598;62.382;17.344;2023-12-28T04:02:39;100562.25;;;14.13;20.61
13478;BME280;12598;62.382;17.344;2023-12-28T04:03:42;100555.22;;;14.12;20.02
13478;BME280;12598;62.382;17.344;2023-12-28T04:04:44;100548.22;;;14.11;20.57
13478;BME280;12598;62.382;17.344;2023-12-28T04:05:46;100542.06;;;14.11;20.26
13478;BME280;12598;62.382;17.344;2023-12-28T04:06:48;100543.75;;;14.12;20.21
13478;BME280;12598;62.382;17.344;2023-12-28T04:07:50;100547.25;;;14.12;20.42
13478;BME280;12598;62.382;17.344;2023-12-28T04:08:52;100532.28;;;14.11;20.20
13478;BME280;12598;62.382;17.344;2023-12-28T04:09:54;100529.63;;;14.11;20.54
13478;BME280;12598;62.382;17.344;2023-12-28T04:10:57;100540.25;;;14.11;20.35
13478;BME280;12598;62.382;17.344;2023-12-28T04:11:59;100538.56;;;14.10;20.61
13478;BME280;12598;62.382;17.344;2023-12-28T04:13:01;100541.22;;;14.10;20.14
13478;BME280;12598;62.382;17.344;2023-12-28T04:14:03;100536.75;;;14.11;20.22
13478;BME280;12598;62.382;17.344;2023-12-28T04:15:05;100542.19;;;14.09;20.62
13478;BME280;12598;62.382;17.344;2023-12-28T04:16:07;100542.19;;;14.09;20.33
13478;BME280;12598;62.382;17.344;2023-12-28T04:17:12;100541.34;;;14.09;20.19
13478;BME280;12598;62.382;17.344;2023-12-28T04:18:14;100537.84;;;14.08;20.11
13478;BME280;12598;62.382;17.344;2023-12-28T04:19:16;100531.94;;;14.05;20.35
13478;BME280;12598;62.382;17.344;2023-12-28T04:20:21;100523.72;;;14.08;20.22
13478;BME280;12598;62.382;17.344;2023-12-28T04:21:24;100515.38;;;14.01;20.58
13478;BME280;12598;62.382;17.344;2023-12-28T04:22:26;100516.59;;;14.08;20.51
13478;BME280;12598;62.382;17.344;2023-12-28T04:23:28;100515.72;;;14.08;20.53
13478;BME280;12598;62.382;17.344;2023-12-28T04:24:30;100514.91;;;14.07;20.08
13478;BME280;12598;62.382;17.344;2023-12-28T04:25:31;100515.88;;;14.06;20.16
13478;BME280;12598;62.382;17.344;2023-12-28T04:26:33;100511.38;;;14.07;20.21
13478;BME280;12598;62.382;17.344;2023-12-28T04:27:36;100492.69;;;13.97;20.49
13478;BME280;12598;62.382;17.344;2023-12-28T04:28:38;100511.38;;;14.07;20.07
13478;BME280;12598;62.382;17.344;2023-12-28T04:29:40;100506.94;;;14.07;20.59
13478;BME280;12598;62.382;17.344;2023-12-28T04:30:42;100498.25;;;14.05;20.70
13478;BME280;12598;62.382;17.344;2023-12-28T04:31:44;100505.09;;;14.08;20.62
13478;BME280;12598;62.382;17.344;2023-12-28T04:32:47;100498.94;;;14.07;20.64
13478;BME280;12598;62.382;17.344;2023-12-28T04:33:49;100495.59;;;14.05;20.17
13478;BME280;12598;62.382;17.344;2023-12-28T04:34:52;100491.94;;;14.06;20.47
13478;BME280;12598;62.382;17.344;2023-12-28T04:35:55;100496.56;;;14.04;20.32
13478;BME280;12598;62.382;17.344;2023-12-28T04:36:58;100499.06;;;14.06;20.37
13478;BME280;12598;62.382;17.344;2023-12-28T04:38:00;100499.94;;;14.06;20.47
13478;BME280;12598;62.382;17.344;2023-12-28T04:39:02;100494.72;;;14.05;20.32
13478;BME280;12598;62.382;17.344;2023-12-28T04:40:06;100492.91;;;14.05;19.99
13478;BME280;12598;62.382;17.344;2023-12-28T04:41:09;100486.91;;;14.03;20.30
13478;BME280;12598;62.382;17.344;2023-12-28T04:42:11;100484.47;;;14.00;20.20
13478;BME280;12598;62.382;17.344;2023-12-28T04:43:13;100477.94;;;14.04;20.34
13478;BME280;12598;62.382;17.344;2023-12-28T04:44:15;100475.28;;;14.04;20.37
13478;BME280;12598;62.382;17.344;2023-12-28T04:45:19;100470.19;;;14.01;20.48
13478;BME280;12598;62.382;17.344;2023-12-28T04:46:22;100460.44;;;14.02;20.56
13478;BME280;12598;62.382;17.344;2023-12-28T04:47:23;100469.97;;;14.04;19.97
13478;BME280;12598;62.382;17.344;2023-12-28T04:48:25;100467.31;;;14.04;20.12
13478;BME280;12598;62.382;17.344;2023-12-28T04:49:27;100457.66;;;14.03;20.31
13478;BME280;12598;62.382;17.344;2023-12-28T04:50:30;100457.66;;;14.03;20.75
13478;BME280;12598;62.382;17.344;2023-12-28T04:51:32;100462.97;;;14.03;20.33
13478;BME280;12598;62.382;17.344;2023-12-28T04:52:33;100462.97;;;14.03;20.53
13478;BME280;12598;62.382;17.344;2023-12-28T04:53:35;100462.97;;;14.03;20.16
13478;BME280;12598;62.382;17.344;2023-12-28T04:54:40;100458.59;;;14.02;20.48
13478;BME280;12598;62.382;17.344;2023-12-28T04:55:42;100465.63;;;14.03;20.49
13478;BME280;12598;62.382;17.344;2023-12-28T04:56:44;100454.41;;;14.00;20.29
13478;BME280;12598;62.382;17.344;2023-12-28T04:57:46;100462.97;;;14.03;20.52
13478;BME280;12598;62.382;17.344;2023-12-28T04:58:48;100461.25;;;14.02;20.46
13478;BME280;12598;62.382;17.344;2023-12-28T04:59:50;100460.44;;;14.02;20.38
13478;BME280;12598;62.382;17.344;2023-12-28T05:00:52;100458.59;;;14.02;20.30
13478;BME280;12598;62.382;17.344;2023-12-28T05:01:54;100452.44;;;14.02;20.18
13478;BME280;12598;62.382;17.344;2023-12-28T05:02:56;100451.59;;;14.01;20.21
13478;BME280;12598;62.382;17.344;2023-12-28T05:03:58;100446.41;;;14.00;20.14
13478;BME280;12598;62.382;17.344;2023-12-28T05:05:00;100450.75;;;14.01;20.28
13478;BME280;12598;62.382;17.344;2023-12-28T05:06:02;100448.94;;;14.01;20.28
13478;BME280;12598;62.382;17.344;2023-12-28T05:07:04;100427.88;;;13.89;20.63
13478;BME280;12598;62.382;17.344;2023-12-28T05:08:06;100444.59;;;14.00;20.42
13478;BME280;12598;62.382;17.344;2023-12-28T05:09:08;100444.59;;;14.00;20.26
13478;BME280;12598;62.382;17.344;2023-12-28T05:10:10;100443.75;;;14.00;20.13
13478;BME280;12598;62.382;17.344;2023-12-28T05:11:11;100432.28;;;13.99;20.51
13478;BME280;12598;62.382;17.344;2023-12-28T05:12:14;100435.06;;;13.98;20.45
13478;BME280;12598;62.382;17.344;2023-12-28T05:13:16;100410.25;;;13.88;20.27
13478;BME280;12598;62.382;17.344;2023-12-28T05:14:18;100422.50;;;14.00;20.17
13478;BME280;12598;62.382;17.344;2023-12-28T05:15:19;100423.47;;;13.99;20.04
13478;BME280;12598;62.382;17.344;2023-12-28T05:16:21;100401.50;;;13.97;20.21
13478;BME280;12598;62.382;17.344;2023-12-28T05:17:23;100407.66;;;13.97;20.54
13478;BME280;12598;62.382;17.344;2023-12-28T05:18:25;100412.13;;;13.97;20.08
13478;BME280;12598;62.382;17.344;2023-12-28T05:19:28;100404.97;;;13.97;20.29
13478;BME280;12598;62.382;17.344;2023-12-28T05:20:30;100399.66;;;13.97;20.18
13478;BME280;12598;62.382;17.344;2023-12-28T05:21:32;100404.16;;;13.97;20.61
13478;BME280;12598;62.382;17.344;2023-12-28T05:22:34;100385.22;;;13.90;20.28
13478;BME280;12598;62.382;17.344;2023-12-28T05:23:35;100390.88;;;13.97;20.39
13478;BME280;12598;62.382;17.344;2023-12-28T05:24:38;100397.88;;;13.98;20.20
13478;BME280;12598;62.382;17.344;2023-12-28T05:25:39;100398.84;;;13.97;20.40